Polfoss — V2PN7 — position and weather

sailwx.info

Track history (hours):
 
Tides and Currents Weather Stations Pressure Air Temp Water Temp Dewpoint Dewpoint Depression Visibility Wind Speed Wind Dir Waves Ship Positions

Polfoss

Last reported at 2016-Jun-29 02:16 UTC. Time now 2016-Jun-30 14:15 UTC.
Position N 69°19' E 017°59'.

Length 82 m; draft 5.3 m.

Type: Cargo ship. MMSI: 305081000.

Date/timePositionNaut miles runAvg speedWind from/ knotsBaromVisibWave heightAir tempDewpointWater temp
2016-Jun-29 02:16N 69°19' E 017°59'912.6
2016-Jun-29 01:34N 69°10' E 017°56'16910.6
2016-Jun-28 09:34N 66°56' E 013°19'12 5.6
2016-Jun-28 07:21N 66°44' E 013°13'1314.7
2016-Jun-28 06:27N 66°32' E 012°58'7412.6
2016-Jun-28 00:33N 65°21' E 012°03'1515.2
2016-Jun-27 23:33N 65°07' E 011°49'1514.8
2016-Jun-27 22:33N 64°56' E 011°26'1414.5
2016-Jun-27 21:34N 64°46' E 011°02'77 9.6
2016-Jun-27 13:33N 63°40' E 009°29'1413.4
2016-Jun-27 12:31N 63°30' E 009°07'  
2016-Jun-23 17:34N 57°09' W 002°05'0 0.0
2016-Jun-23 16:34N 57°09' W 002°05'0 0.0
2016-Jun-23 15:33N 57°09' W 002°05'0 0.0
2016-Jun-23 14:33N 57°09' W 002°05'0 0.0
2016-Jun-23 13:33N 57°09' W 002°05'0 0.0
2016-Jun-23 12:34N 57°09' W 002°05'0 0.0
2016-Jun-23 11:33N 57°09' W 002°05'13913.9
2016-Jun-23 01:33N 55°01' W 000°32'1514.8
2016-Jun-23 00:34N 54°47' W 000°22'1515.5
2016-Jun-22 23:34N 54°32' W 000°12'1615.7
2016-Jun-22 22:34N 54°18' W 000°02'1615.8
2016-Jun-22 21:34N 54°03' E 000°08'1515.4
2016-Jun-22 20:33N 53°49' E 000°17'1413.4
2016-Jun-22 19:33N 53°35' E 000°19'1111.2
2016-Jun-22 18:33N 53°35' W 000°00'3 2.6
2016-Jun-22 17:33N 53°35' W 000°04'0 0.0
2016-Jun-22 16:33N 53°35' W 000°04'0 0.0
2016-Jun-22 15:33N 53°35' W 000°04'0 0.0
2016-Jun-22 14:34N 53°35' W 000°04'0 0.0
2016-Jun-22 13:33N 53°35' W 000°04'0 0.0
2016-Jun-22 12:33N 53°35' W 000°04'0 0.0
2016-Jun-22 11:33N 53°35' W 000°04'0 0.0
2016-Jun-22 10:33N 53°35' W 000°04'0 0.0
2016-Jun-22 09:33N 53°35' W 000°04'0 0.0
2016-Jun-22 08:33N 53°35' W 000°04'0 0.0
2016-Jun-22 07:33N 53°35' W 000°04'0 0.0
2016-Jun-22 06:33N 53°35' W 000°04'0 0.0
2016-Jun-22 05:33N 53°35' W 000°04'0 0.0
2016-Jun-22 04:33N 53°35' W 000°04'0 0.0
2016-Jun-22 03:33N 53°35' W 000°04'0 0.0
2016-Jun-22 02:33N 53°35' W 000°04'0 0.0
2016-Jun-22 01:33N 53°35' W 000°04'0 0.0
2016-Jun-22 00:33N 53°35' W 000°04'0 0.0
2016-Jun-21 23:33N 53°35' W 000°04'0 0.0
2016-Jun-21 22:33N 53°35' W 000°04'0 0.0
2016-Jun-21 21:33N 53°35' W 000°04'0 0.0
2016-Jun-21 20:33N 53°35' W 000°04'0 0.0
2016-Jun-21 19:33N 53°35' W 000°04'0 0.0
2016-Jun-21 18:33N 53°35' W 000°04'1 0.6
2016-Jun-21 17:33N 53°35' W 000°04'6 5.6
2016-Jun-21 16:34N 53°34' E 000°05'10 9.9
2016-Jun-21 15:32N 53°30' E 000°21'1311.9
2016-Jun-21 14:26N 53°25' E 000°41'1111.7
2016-Jun-21 13:32N 53°21' E 000°57'1612.2
2016-Jun-21 12:14N 53°13' E 001°21'912.9
2016-Jun-21 11:32N 53°10' E 001°35'1212.8
2016-Jun-21 10:33N 53°05' E 001°54'1413.0
2016-Jun-21 09:27N 52°58' E 002°15'6613.4
2016-Jun-21 04:32N 52°31' E 003°55'1313.2
2016-Jun-21 03:33N 52°30' E 004°16'1212.5
2016-Jun-21 02:33N 52°28' E 004°36'2 2.4
2016-Jun-21 01:31N 52°28' E 004°40'0 0.0
2016-Jun-21 00:33N 52°28' E 004°40'0 0.0
2016-Jun-20 23:32N 52°28' E 004°40'0 0.0
2016-Jun-20 22:32N 52°28' E 004°40'0 0.0
2016-Jun-20 21:28N 52°28' E 004°40'0 0.0
2016-Jun-20 20:33N 52°28' E 004°40'0 0.0
2016-Jun-20 19:33N 52°28' E 004°40'0 0.0
2016-Jun-20 18:29N 52°28' E 004°40'0 0.0
2016-Jun-20 17:31N 52°28' E 004°40'0 0.0
2016-Jun-20 16:31N 52°28' E 004°40'0 0.0
2016-Jun-20 15:33N 52°28' E 004°40'0 0.0
2016-Jun-20 14:30N 52°28' E 004°40'0 0.0
2016-Jun-20 13:32N 52°28' E 004°40'0 0.0
2016-Jun-20 12:31N 52°28' E 004°40'0 0.0
2016-Jun-20 11:31N 52°28' E 004°40'0 0.0
2016-Jun-20 10:27N 52°28' E 004°40'0 0.0
2016-Jun-20 09:32N 52°28' E 004°40'0 0.0
2016-Jun-20 08:32N 52°28' E 004°40'0 0.0
2016-Jun-20 07:31N 52°28' E 004°40'0 0.0
2016-Jun-20 06:33N 52°28' E 004°40'0 0.0
2016-Jun-20 05:33N 52°28' E 004°40'0 0.0
2016-Jun-20 04:32N 52°28' E 004°40'0 0.0
2016-Jun-20 03:32N 52°28' E 004°40'0 0.0
2016-Jun-20 02:31N 52°28' E 004°40'0 0.0
2016-Jun-20 01:33N 52°28' E 004°40'0 0.0
2016-Jun-20 00:33N 52°28' E 004°40'0 0.0
2016-Jun-19 23:32N 52°28' E 004°40'0 0.0
2016-Jun-19 22:31N 52°28' E 004°40'0 0.0
2016-Jun-19 21:31N 52°28' E 004°40'0 0.0
2016-Jun-19 20:33N 52°28' E 004°40'0 0.0
2016-Jun-19 19:30N 52°28' E 004°40'0 0.0
2016-Jun-19 18:32N 52°28' E 004°40'0 0.0
2016-Jun-19 17:31N 52°28' E 004°40'0 0.0
2016-Jun-19 16:31N 52°28' E 004°40'0 0.0
2016-Jun-19 15:33N 52°28' E 004°40'0 0.0
2016-Jun-19 14:32N 52°28' E 004°40'0 0.0
2016-Jun-19 13:32N 52°28' E 004°40'0 0.0
2016-Jun-19 12:31N 52°28' E 004°40'0 0.0
2016-Jun-19 11:33N 52°28' E 004°40'3 3.1
2016-Jun-19 10:33N 52°28' E 004°35'1111.4
2016-Jun-19 09:34N 52°39' E 004°30'1515.3
2016-Jun-19 08:33N 52°54' E 004°30'6513.0
2016-Jun-19 03:32N 53°58' E 004°53'1413.8
2016-Jun-19 02:33N 54°12' E 004°57'  
Track history (hours):
 
Tides and Currents Weather Stations Pressure Air Temp Water Temp Dewpoint Dewpoint Depression Visibility Wind Speed Wind Dir Waves Ship Positions

Polfoss

Last reported at 2016-Jun-29 02:16 UTC. Time now 2016-Jun-30 14:15 UTC.
Position N 69°19' E 017°59'.

Length 82 m; draft 5.3 m.

Type: Cargo ship. MMSI: 305081000.

Date/timePositionNaut miles runAvg speedWind from/ knotsBaromVisibWave heightAir tempDewpointWater temp
2016-Jun-29 02:16N 69°19' E 017°59'912.6
2016-Jun-29 01:34N 69°10' E 017°56'16910.6
2016-Jun-28 09:34N 66°56' E 013°19'12 5.6
2016-Jun-28 07:21N 66°44' E 013°13'1314.7
2016-Jun-28 06:27N 66°32' E 012°58'7412.6
2016-Jun-28 00:33N 65°21' E 012°03'1515.2
2016-Jun-27 23:33N 65°07' E 011°49'1514.8
2016-Jun-27 22:33N 64°56' E 011°26'1414.5
2016-Jun-27 21:34N 64°46' E 011°02'77 9.6
2016-Jun-27 13:33N 63°40' E 009°29'1413.4
2016-Jun-27 12:31N 63°30' E 009°07'  
2016-Jun-23 17:34N 57°09' W 002°05'0 0.0
2016-Jun-23 16:34N 57°09' W 002°05'0 0.0
2016-Jun-23 15:33N 57°09' W 002°05'0 0.0
2016-Jun-23 14:33N 57°09' W 002°05'0 0.0
2016-Jun-23 13:33N 57°09' W 002°05'0 0.0
2016-Jun-23 12:34N 57°09' W 002°05'0 0.0
2016-Jun-23 11:33N 57°09' W 002°05'13913.9
2016-Jun-23 01:33N 55°01' W 000°32'1514.8
2016-Jun-23 00:34N 54°47' W 000°22'1515.5
2016-Jun-22 23:34N 54°32' W 000°12'1615.7
2016-Jun-22 22:34N 54°18' W 000°02'1615.8
2016-Jun-22 21:34N 54°03' E 000°08'1515.4
2016-Jun-22 20:33N 53°49' E 000°17'1413.4
2016-Jun-22 19:33N 53°35' E 000°19'1111.2
2016-Jun-22 18:33N 53°35' W 000°00'3 2.6
2016-Jun-22 17:33N 53°35' W 000°04'0 0.0
2016-Jun-22 16:33N 53°35' W 000°04'0 0.0
2016-Jun-22 15:33N 53°35' W 000°04'0 0.0
2016-Jun-22 14:34N 53°35' W 000°04'0 0.0
2016-Jun-22 13:33N 53°35' W 000°04'0 0.0
2016-Jun-22 12:33N 53°35' W 000°04'0 0.0
2016-Jun-22 11:33N 53°35' W 000°04'0 0.0
2016-Jun-22 10:33N 53°35' W 000°04'0 0.0
2016-Jun-22 09:33N 53°35' W 000°04'0 0.0
2016-Jun-22 08:33N 53°35' W 000°04'0 0.0
2016-Jun-22 07:33N 53°35' W 000°04'0 0.0
2016-Jun-22 06:33N 53°35' W 000°04'0 0.0
2016-Jun-22 05:33N 53°35' W 000°04'0 0.0
2016-Jun-22 04:33N 53°35' W 000°04'0 0.0
2016-Jun-22 03:33N 53°35' W 000°04'0 0.0
2016-Jun-22 02:33N 53°35' W 000°04'0 0.0
2016-Jun-22 01:33N 53°35' W 000°04'0 0.0
2016-Jun-22 00:33N 53°35' W 000°04'0 0.0
2016-Jun-21 23:33N 53°35' W 000°04'0 0.0
2016-Jun-21 22:33N 53°35' W 000°04'0 0.0
2016-Jun-21 21:33N 53°35' W 000°04'0 0.0
2016-Jun-21 20:33N 53°35' W 000°04'0 0.0
2016-Jun-21 19:33N 53°35' W 000°04'0 0.0
2016-Jun-21 18:33N 53°35' W 000°04'1 0.6
2016-Jun-21 17:33N 53°35' W 000°04'6 5.6
2016-Jun-21 16:34N 53°34' E 000°05'10 9.9
2016-Jun-21 15:32N 53°30' E 000°21'1311.9
2016-Jun-21 14:26N 53°25' E 000°41'1111.7
2016-Jun-21 13:32N 53°21' E 000°57'1612.2
2016-Jun-21 12:14N 53°13' E 001°21'912.9
2016-Jun-21 11:32N 53°10' E 001°35'1212.8
2016-Jun-21 10:33N 53°05' E 001°54'1413.0
2016-Jun-21 09:27N 52°58' E 002°15'6613.4
2016-Jun-21 04:32N 52°31' E 003°55'1313.2
2016-Jun-21 03:33N 52°30' E 004°16'1212.5
2016-Jun-21 02:33N 52°28' E 004°36'2 2.4
2016-Jun-21 01:31N 52°28' E 004°40'0 0.0
2016-Jun-21 00:33N 52°28' E 004°40'0 0.0
2016-Jun-20 23:32N 52°28' E 004°40'0 0.0
2016-Jun-20 22:32N 52°28' E 004°40'0 0.0
2016-Jun-20 21:28N 52°28' E 004°40'0 0.0
2016-Jun-20 20:33N 52°28' E 004°40'0 0.0
2016-Jun-20 19:33N 52°28' E 004°40'0 0.0
2016-Jun-20 18:29N 52°28' E 004°40'0 0.0
2016-Jun-20 17:31N 52°28' E 004°40'0 0.0
2016-Jun-20 16:31N 52°28' E 004°40'0 0.0
2016-Jun-20 15:33N 52°28' E 004°40'0 0.0
2016-Jun-20 14:30N 52°28' E 004°40'0 0.0
2016-Jun-20 13:32N 52°28' E 004°40'0 0.0
2016-Jun-20 12:31N 52°28' E 004°40'0 0.0
2016-Jun-20 11:31N 52°28' E 004°40'0 0.0
2016-Jun-20 10:27N 52°28' E 004°40'0 0.0
2016-Jun-20 09:32N 52°28' E 004°40'0 0.0
2016-Jun-20 08:32N 52°28' E 004°40'0 0.0
2016-Jun-20 07:31N 52°28' E 004°40'0 0.0
2016-Jun-20 06:33N 52°28' E 004°40'0 0.0
2016-Jun-20 05:33N 52°28' E 004°40'0 0.0
2016-Jun-20 04:32N 52°28' E 004°40'0 0.0
2016-Jun-20 03:32N 52°28' E 004°40'0 0.0
2016-Jun-20 02:31N 52°28' E 004°40'0 0.0
2016-Jun-20 01:33N 52°28' E 004°40'0 0.0
2016-Jun-20 00:33N 52°28' E 004°40'0 0.0
2016-Jun-19 23:32N 52°28' E 004°40'0 0.0
2016-Jun-19 22:31N 52°28' E 004°40'0 0.0
2016-Jun-19 21:31N 52°28' E 004°40'0 0.0
2016-Jun-19 20:33N 52°28' E 004°40'0 0.0
2016-Jun-19 19:30N 52°28' E 004°40'0 0.0
2016-Jun-19 18:32N 52°28' E 004°40'0 0.0
2016-Jun-19 17:31N 52°28' E 004°40'0 0.0
2016-Jun-19 16:31N 52°28' E 004°40'0 0.0
2016-Jun-19 15:33N 52°28' E 004°40'0 0.0
2016-Jun-19 14:32N 52°28' E 004°40'0 0.0
2016-Jun-19 13:32N 52°28' E 004°40'0 0.0
2016-Jun-19 12:31N 52°28' E 004°40'0 0.0
2016-Jun-19 11:33N 52°28' E 004°40'3 3.1
2016-Jun-19 10:33N 52°28' E 004°35'1111.4
2016-Jun-19 09:34N 52°39' E 004°30'1515.3
2016-Jun-19 08:33N 52°54' E 004°30'6513.0
2016-Jun-19 03:32N 53°58' E 004°53'1413.8
2016-Jun-19 02:33N 54°12' E 004°57'  

Dump ship's entire track history